sensor_id;sensor_type;location;lat;lon;timestamp;temperature;humidity
74364;DHT22;62797;49.740;10.154;2022-11-09T00:00:52;10.70;59.70
74364;DHT22;62797;49.740;10.154;2022-11-09T00:03:17;10.70;59.20
74364;DHT22;62797;49.740;10.154;2022-11-09T00:05:43;10.60;59.10
74364;DHT22;62797;49.740;10.154;2022-11-09T00:08:18;10.60;59.70
74364;DHT22;62797;49.740;10.154;2022-11-09T00:10:43;10.60;60.00
74364;DHT22;62797;49.740;10.154;2022-11-09T00:13:09;10.50;60.00
74364;DHT22;62797;49.740;10.154;2022-11-09T00:15:34;10.30;60.80
74364;DHT22;62797;49.740;10.154;2022-11-09T00:18:00;10.30;60.90
74364;DHT22;62797;49.740;10.154;2022-11-09T00:20:27;10.30;61.60
74364;DHT22;62797;49.740;10.154;2022-11-09T00:22:53;10.30;62.30
74364;DHT22;62797;49.740;10.154;2022-11-09T00:25:18;10.20;62.60
74364;DHT22;62797;49.740;10.154;2022-11-09T00:27:44;10.10;63.30
74364;DHT22;62797;49.740;10.154;2022-11-09T00:30:10;10.10;62.20
74364;DHT22;62797;49.740;10.154;2022-11-09T00:32:36;10.10;62.80
74364;DHT22;62797;49.740;10.154;2022-11-09T00:35:01;10.10;62.40
74364;DHT22;62797;49.740;10.154;2022-11-09T00:37:30;10.00;62.00
74364;DHT22;62797;49.740;10.154;2022-11-09T00:39:56;10.00;63.00
74364;DHT22;62797;49.740;10.154;2022-11-09T00:42:21;9.90;62.90
74364;DHT22;62797;49.740;10.154;2022-11-09T00:44:47;9.90;63.00
74364;DHT22;62797;49.740;10.154;2022-11-09T00:47:12;9.90;63.50
74364;DHT22;62797;49.740;10.154;2022-11-09T00:49:38;9.80;63.40
74364;DHT22;62797;49.740;10.154;2022-11-09T00:52:04;9.80;63.70
74364;DHT22;62797;49.740;10.154;2022-11-09T00:54:29;9.80;63.50
74364;DHT22;62797;49.740;10.154;2022-11-09T00:56:55;9.80;64.40
74364;DHT22;62797;49.740;10.154;2022-11-09T00:59:20;9.80;63.90
74364;DHT22;62797;49.740;10.154;2022-11-09T01:01:46;9.80;63.90
74364;DHT22;62797;49.740;10.154;2022-11-09T01:04:12;9.80;64.70
74364;DHT22;62797;49.740;10.154;2022-11-09T01:06:37;9.90;64.50
74364;DHT22;62797;49.740;10.154;2022-11-09T01:09:03;9.90;64.40
74364;DHT22;62797;49.740;10.154;2022-11-09T01:11:28;9.90;64.20
74364;DHT22;62797;49.740;10.154;2022-11-09T01:13:54;10.00;63.70
74364;DHT22;62797;49.740;10.154;2022-11-09T01:16:21;10.20;63.20
74364;DHT22;62797;49.740;10.154;2022-11-09T01:18:50;10.30;61.80
74364;DHT22;62797;49.740;10.154;2022-11-09T01:21:16;10.40;62.30
74364;DHT22;62797;49.740;10.154;2022-11-09T01:23:42;10.50;61.10
74364;DHT22;62797;49.740;10.154;2022-11-09T01:26:10;10.60;60.30
74364;DHT22;62797;49.740;10.154;2022-11-09T01:28:36;10.70;60.10
74364;DHT22;62797;49.740;10.154;2022-11-09T01:31:07;10.70;59.80
74364;DHT22;62797;49.740;10.154;2022-11-09T01:33:34;10.70;60.10
74364;DHT22;62797;49.740;10.154;2022-11-09T01:36:02;10.70;60.00
74364;DHT22;62797;49.740;10.154;2022-11-09T01:38:28;10.80;58.90
74364;DHT22;62797;49.740;10.154;2022-11-09T01:40:54;10.80;58.90
74364;DHT22;62797;49.740;10.154;2022-11-09T01:43:21;10.80;58.00
74364;DHT22;62797;49.740;10.154;2022-11-09T01:51:33;11.00;56.80
74364;DHT22;62797;49.740;10.154;2022-11-09T01:54:21;11.10;57.10
74364;DHT22;62797;49.740;10.154;2022-11-09T01:56:50;11.00;57.20
74364;DHT22;62797;49.740;10.154;2022-11-09T01:59:23;11.10;57.50
74364;DHT22;62797;49.740;10.154;2022-11-09T02:01:50;11.00;57.20
74364;DHT22;62797;49.740;10.154;2022-11-09T02:04:21;11.00;56.90
74364;DHT22;62797;49.740;10.154;2022-11-09T02:06:48;11.00;57.40
74364;DHT22;62797;49.740;10.154;2022-11-09T02:11:46;11.00;56.60
74364;DHT22;62797;49.740;10.154;2022-11-09T02:14:12;11.00;57.50
74364;DHT22;62797;49.740;10.154;2022-11-09T02:16:39;11.00;58.00
74364;DHT22;62797;49.740;10.154;2022-11-09T02:19:05;11.10;57.40
74364;DHT22;62797;49.740;10.154;2022-11-09T02:21:31;11.00;56.90
74364;DHT22;62797;49.740;10.154;2022-11-09T02:23:58;11.00;57.00
74364;DHT22;62797;49.740;10.154;2022-11-09T02:26:46;10.90;58.10
74364;DHT22;62797;49.740;10.154;2022-11-09T02:29:16;11.00;58.20
74364;DHT22;62797;49.740;10.154;2022-11-09T02:31:46;10.90;58.60
74364;DHT22;62797;49.740;10.154;2022-11-09T02:34:18;11.00;58.90
74364;DHT22;62797;49.740;10.154;2022-11-09T02:36:44;10.90;60.60
74364;DHT22;62797;49.740;10.154;2022-11-09T02:39:11;10.80;61.80
74364;DHT22;62797;49.740;10.154;2022-11-09T02:41:45;10.70;65.10
74364;DHT22;62797;49.740;10.154;2022-11-09T02:44:12;10.60;65.90
74364;DHT22;62797;49.740;10.154;2022-11-09T02:46:38;10.60;65.80
74364;DHT22;62797;49.740;10.154;2022-11-09T02:49:04;10.60;66.70
74364;DHT22;62797;49.740;10.154;2022-11-09T02:51:30;10.60;66.80
74364;DHT22;62797;49.740;10.154;2022-11-09T02:53:55;10.60;66.40
74364;DHT22;62797;49.740;10.154;2022-11-09T02:56:21;10.60;66.80
74364;DHT22;62797;49.740;10.154;2022-11-09T02:58:46;10.60;67.00
74364;DHT22;62797;49.740;10.154;2022-11-09T03:01:12;10.60;67.20
74364;DHT22;62797;49.740;10.154;2022-11-09T03:03:38;10.70;68.00
74364;DHT22;62797;49.740;10.154;2022-11-09T03:06:03;10.70;68.00
74364;DHT22;62797;49.740;10.154;2022-11-09T03:08:29;10.70;67.70
74364;DHT22;62797;49.740;10.154;2022-11-09T03:10:54;10.70;67.90
74364;DHT22;62797;49.740;10.154;2022-11-09T03:13:20;10.70;68.00
74364;DHT22;62797;49.740;10.154;2022-11-09T03:15:46;10.70;68.80
74364;DHT22;62797;49.740;10.154;2022-11-09T03:18:11;10.70;69.10
74364;DHT22;62797;49.740;10.154;2022-11-09T03:20:37;10.70;69.10
74364;DHT22;62797;49.740;10.154;2022-11-09T03:23:02;10.60;69.60
74364;DHT22;62797;49.740;10.154;2022-11-09T03:25:28;10.50;69.40
74364;DHT22;62797;49.740;10.154;2022-11-09T03:27:58;10.60;68.80
74364;DHT22;62797;49.740;10.154;2022-11-09T03:30:24;10.60;69.20
74364;DHT22;62797;49.740;10.154;2022-11-09T03:32:50;10.60;69.50
74364;DHT22;62797;49.740;10.154;2022-11-09T03:35:15;10.60;70.00
74364;DHT22;62797;49.740;10.154;2022-11-09T03:37:41;10.60;69.40
74364;DHT22;62797;49.740;10.154;2022-11-09T03:40:07;10.70;69.80
74364;DHT22;62797;49.740;10.154;2022-11-09T03:42:33;10.70;70.10
74364;DHT22;62797;49.740;10.154;2022-11-09T03:44:58;10.70;69.80
74364;DHT22;62797;49.740;10.154;2022-11-09T03:47:24;10.70;70.50
74364;DHT22;62797;49.740;10.154;2022-11-09T03:49:49;10.60;71.10
74364;DHT22;62797;49.740;10.154;2022-11-09T03:52:15;10.60;71.10
74364;DHT22;62797;49.740;10.154;2022-11-09T03:54:40;10.50;72.20
74364;DHT22;62797;49.740;10.154;2022-11-09T03:57:06;10.60;71.30
74364;DHT22;62797;49.740;10.154;2022-11-09T03:59:31;10.60;70.80
74364;DHT22;62797;49.740;10.154;2022-11-09T04:01:57;10.60;70.60
74364;DHT22;62797;49.740;10.154;2022-11-09T04:04:23;10.70;70.80
74364;DHT22;62797;49.740;10.154;2022-11-09T04:06:48;10.60;70.80
74364;DHT22;62797;49.740;10.154;2022-11-09T04:09:14;10.60;71.40
74364;DHT22;62797;49.740;10.154;2022-11-09T04:11:39;10.60;71.60
74364;DHT22;62797;49.740;10.154;2022-11-09T04:14:05;10.60;70.80
74364;DHT22;62797;49.740;10.154;2022-11-09T04:16:30;10.50;71.10
74364;DHT22;62797;49.740;10.154;2022-11-09T04:18:56;10.40;72.50
74364;DHT22;62797;49.740;10.154;2022-11-09T04:21:21;10.40;73.00
74364;DHT22;62797;49.740;10.154;2022-11-09T04:23:47;10.30;74.20
74364;DHT22;62797;49.740;10.154;2022-11-09T04:26:13;10.30;74.20
74364;DHT22;62797;49.740;10.154;2022-11-09T04:28:39;10.30;75.50
74364;DHT22;62797;49.740;10.154;2022-11-09T04:31:04;10.30;76.40
74364;DHT22;62797;49.740;10.154;2022-11-09T04:33:30;10.30;76.80
74364;DHT22;62797;49.740;10.154;2022-11-09T04:36:01;10.30;76.30
74364;DHT22;62797;49.740;10.154;2022-11-09T04:38:27;10.30;76.60
74364;DHT22;62797;49.740;10.154;2022-11-09T04:40:52;10.30;76.60
74364;DHT22;62797;49.740;10.154;2022-11-09T04:43:18;10.30;76.80
74364;DHT22;62797;49.740;10.154;2022-11-09T04:45:43;10.20;76.60
74364;DHT22;62797;49.740;10.154;2022-11-09T04:48:10;10.30;76.90
74364;DHT22;62797;49.740;10.154;2022-11-09T04:50:36;10.20;77.10
74364;DHT22;62797;49.740;10.154;2022-11-09T04:53:10;10.20;77.50
74364;DHT22;62797;49.740;10.154;2022-11-09T04:55:36;10.30;77.70
74364;DHT22;62797;49.740;10.154;2022-11-09T04:58:02;10.20;77.90
74364;DHT22;62797;49.740;10.154;2022-11-09T05:00:28;10.20;78.50
74364;DHT22;62797;49.740;10.154;2022-11-09T05:02:53;10.10;79.20
74364;DHT22;62797;49.740;10.154;2022-11-09T05:05:19;10.10;79.80
74364;DHT22;62797;49.740;10.154;2022-11-09T05:07:44;10.10;79.90
74364;DHT22;62797;49.740;10.154;2022-11-09T05:10:10;10.10;80.00
74364;DHT22;62797;49.740;10.154;2022-11-09T05:12:35;10.10;80.00
74364;DHT22;62797;49.740;10.154;2022-11-09T05:15:01;10.10;80.20
74364;DHT22;62797;49.740;10.154;2022-11-09T05:17:27;10.10;80.40
74364;DHT22;62797;49.740;10.154;2022-11-09T05:19:52;10.10;80.60
74364;DHT22;62797;49.740;10.154;2022-11-09T05:22:18;10.10;80.80
74364;DHT22;62797;49.740;10.154;2022-11-09T05:25:02;10.10;81.10
74364;DHT22;62797;49.740;10.154;2022-11-09T05:27:28;10.10;81.30
74364;DHT22;62797;49.740;10.154;2022-11-09T05:29:53;10.10;81.50
74364;DHT22;62797;49.740;10.154;2022-11-09T05:32:19;10.20;81.50
74364;DHT22;62797;49.740;10.154;2022-11-09T05:34:44;10.20;81.50
74364;DHT22;62797;49.740;10.154;2022-11-09T05:37:10;10.10;81.80
74364;DHT22;62797;49.740;10.154;2022-11-09T05:39:35;10.20;82.10
74364;DHT22;62797;49.740;10.154;2022-11-09T05:42:01;10.10;82.20
74364;DHT22;62797;49.740;10.154;2022-11-09T05:44:26;10.10;82.70
74364;DHT22;62797;49.740;10.154;2022-11-09T05:46:52;10.10;82.70
74364;DHT22;62797;49.740;10.154;2022-11-09T05:49:17;10.00;82.70
74364;DHT22;62797;49.740;10.154;2022-11-09T05:51:43;10.00;82.90
74364;DHT22;62797;49.740;10.154;2022-11-09T05:54:08;10.10;83.30
74364;DHT22;62797;49.740;10.154;2022-11-09T05:56:34;10.10;83.70
74364;DHT22;62797;49.740;10.154;2022-11-09T05:58:59;10.10;83.80
74364;DHT22;62797;49.740;10.154;2022-11-09T06:01:25;10.10;83.70
74364;DHT22;62797;49.740;10.154;2022-11-09T06:03:53;10.10;83.80
74364;DHT22;62797;49.740;10.154;2022-11-09T06:06:19;10.10;84.20
74364;DHT22;62797;49.740;10.154;2022-11-09T06:08:44;10.10;84.10
74364;DHT22;62797;49.740;10.154;2022-11-09T06:11:11;10.20;84.20
74364;DHT22;62797;49.740;10.154;2022-11-09T06:13:37;10.20;84.20
74364;DHT22;62797;49.740;10.154;2022-11-09T06:16:04;10.30;84.60
74364;DHT22;62797;49.740;10.154;2022-11-09T06:18:31;10.30;84.40
74364;DHT22;62797;49.740;10.154;2022-11-09T06:21:00;10.20;84.40
74364;DHT22;62797;49.740;10.154;2022-11-09T06:23:26;10.30;84.60
74364;DHT22;62797;49.740;10.154;2022-11-09T06:28:22;10.30;84.60
74364;DHT22;62797;49.740;10.154;2022-11-09T06:30:48;10.30;85.50
74364;DHT22;62797;49.740;10.154;2022-11-09T06:33:14;10.30;84.70
74364;DHT22;62797;49.740;10.154;2022-11-09T06:35:40;10.30;84.70
74364;DHT22;62797;49.740;10.154;2022-11-09T06:38:06;10.40;84.60
74364;DHT22;62797;49.740;10.154;2022-11-09T06:40:32;10.40;84.70
74364;DHT22;62797;49.740;10.154;2022-11-09T06:42:59;10.40;84.70
74364;DHT22;62797;49.740;10.154;2022-11-09T06:45:26;10.40;84.40
74364;DHT22;62797;49.740;10.154;2022-11-09T06:47:55;10.40;84.30
74364;DHT22;62797;49.740;10.154;2022-11-09T06:50:20;10.40;84.30
74364;DHT22;62797;49.740;10.154;2022-11-09T06:52:46;10.50;84.50
74364;DHT22;62797;49.740;10.154;2022-11-09T06:55:11;10.50;84.50
74364;DHT22;62797;49.740;10.154;2022-11-09T06:57:37;10.50;84.70
74364;DHT22;62797;49.740;10.154;2022-11-09T07:00:04;10.50;84.70
74364;DHT22;62797;49.740;10.154;2022-11-09T07:02:30;10.50;84.90
74364;DHT22;62797;49.740;10.154;2022-11-09T07:04:55;10.60;85.00
74364;DHT22;62797;49.740;10.154;2022-11-09T07:07:21;10.60;85.00
74364;DHT22;62797;49.740;10.154;2022-11-09T07:09:46;10.60;85.10
74364;DHT22;62797;49.740;10.154;2022-11-09T07:12:12;10.70;85.50
74364;DHT22;62797;49.740;10.154;2022-11-09T07:14:37;10.70;85.50
74364;DHT22;62797;49.740;10.154;2022-11-09T07:17:03;10.80;85.50
74364;DHT22;62797;49.740;10.154;2022-11-09T07:19:30;10.70;85.40
74364;DHT22;62797;49.740;10.154;2022-11-09T07:21:55;10.80;85.30
74364;DHT22;62797;49.740;10.154;2022-11-09T07:24:22;10.80;85.40
74364;DHT22;62797;49.740;10.154;2022-11-09T07:26:48;10.80;85.30
74364;DHT22;62797;49.740;10.154;2022-11-09T07:29:14;10.80;85.30
74364;DHT22;62797;49.740;10.154;2022-11-09T07:31:39;10.80;85.50
74364;DHT22;62797;49.740;10.154;2022-11-09T07:34:05;10.70;85.40
74364;DHT22;62797;49.740;10.154;2022-11-09T07:36:31;10.70;85.50
74364;DHT22;62797;49.740;10.154;2022-11-09T07:38:57;10.80;85.50
74364;DHT22;62797;49.740;10.154;2022-11-09T07:41:23;10.80;85.70
74364;DHT22;62797;49.740;10.154;2022-11-09T07:43:48;10.80;85.60
74364;DHT22;62797;49.740;10.154;2022-11-09T07:46:14;10.80;85.50
74364;DHT22;62797;49.740;10.154;2022-11-09T07:48:39;10.80;85.20
74364;DHT22;62797;49.740;10.154;2022-11-09T07:51:05;10.80;85.30
74364;DHT22;62797;49.740;10.154;2022-11-09T07:53:30;10.90;85.50
74364;DHT22;62797;49.740;10.154;2022-11-09T07:55:58;10.90;85.80
74364;DHT22;62797;49.740;10.154;2022-11-09T07:58:24;11.00;85.90
74364;DHT22;62797;49.740;10.154;2022-11-09T08:00:49;10.90;85.60
74364;DHT22;62797;49.740;10.154;2022-11-09T08:03:17;10.90;86.00
74364;DHT22;62797;49.740;10.154;2022-11-09T08:05:43;11.00;86.20
74364;DHT22;62797;49.740;10.154;2022-11-09T08:08:10;11.10;86.50
74364;DHT22;62797;49.740;10.154;2022-11-09T08:10:36;11.10;86.30
74364;DHT22;62797;49.740;10.154;2022-11-09T08:13:04;11.20;86.30
74364;DHT22;62797;49.740;10.154;2022-11-09T08:15:32;11.20;86.50
74364;DHT22;62797;49.740;10.154;2022-11-09T08:17:59;11.30;86.60
74364;DHT22;62797;49.740;10.154;2022-11-09T08:20:25;11.40;86.70
74364;DHT22;62797;49.740;10.154;2022-11-09T08:22:50;11.40;86.80
74364;DHT22;62797;49.740;10.154;2022-11-09T08:25:16;11.40;86.80
74364;DHT22;62797;49.740;10.154;2022-11-09T08:27:42;11.50;86.90
74364;DHT22;62797;49.740;10.154;2022-11-09T08:30:14;11.50;87.10
74364;DHT22;62797;49.740;10.154;2022-11-09T08:32:40;11.50;87.10
74364;DHT22;62797;49.740;10.154;2022-11-09T08:35:07;11.50;87.00
74364;DHT22;62797;49.740;10.154;2022-11-09T08:37:35;11.50;87.10
74364;DHT22;62797;49.740;10.154;2022-11-09T08:40:00;11.50;87.00
74364;DHT22;62797;49.740;10.154;2022-11-09T08:42:26;11.50;86.90
74364;DHT22;62797;49.740;10.154;2022-11-09T08:44:51;11.50;87.00
74364;DHT22;62797;49.740;10.154;2022-11-09T08:47:17;11.50;86.60
74364;DHT22;62797;49.740;10.154;2022-11-09T08:49:42;11.60;86.90
74364;DHT22;62797;49.740;10.154;2022-11-09T08:52:09;11.60;86.90
74364;DHT22;62797;49.740;10.154;2022-11-09T08:54:38;11.80;87.20
74364;DHT22;62797;49.740;10.154;2022-11-09T08:57:03;11.80;87.30
74364;DHT22;62797;49.740;10.154;2022-11-09T08:59:29;11.90;87.50
74364;DHT22;62797;49.740;10.154;2022-11-09T09:01:55;11.90;87.60
74364;DHT22;62797;49.740;10.154;2022-11-09T09:04:20;12.00;87.80
74364;DHT22;62797;49.740;10.154;2022-11-09T09:06:46;12.00;87.70
74364;DHT22;62797;49.740;10.154;2022-11-09T09:09:12;12.10;87.40
74364;DHT22;62797;49.740;10.154;2022-11-09T09:11:37;12.00;87.60
74364;DHT22;62797;49.740;10.154;2022-11-09T09:14:03;12.10;87.50
74364;DHT22;62797;49.740;10.154;2022-11-09T09:16:28;12.10;87.70
74364;DHT22;62797;49.740;10.154;2022-11-09T09:18:54;12.10;87.50
74364;DHT22;62797;49.740;10.154;2022-11-09T09:21:19;12.10;87.60
74364;DHT22;62797;49.740;10.154;2022-11-09T09:23:48;12.10;87.50
74364;DHT22;62797;49.740;10.154;2022-11-09T09:26:14;12.10;87.50
74364;DHT22;62797;49.740;10.154;2022-11-09T09:28:40;12.10;87.60
74364;DHT22;62797;49.740;10.154;2022-11-09T09:31:06;12.20;87.60
74364;DHT22;62797;49.740;10.154;2022-11-09T09:33:32;12.20;87.60
74364;DHT22;62797;49.740;10.154;2022-11-09T09:35:58;12.20;87.70
74364;DHT22;62797;49.740;10.154;2022-11-09T09:38:27;12.30;87.90
74364;DHT22;62797;49.740;10.154;2022-11-09T09:41:05;12.40;87.80
74364;DHT22;62797;49.740;10.154;2022-11-09T09:43:35;12.50;88.10
74364;DHT22;62797;49.740;10.154;2022-11-09T09:46:03;12.50;88.10
74364;DHT22;62797;49.740;10.154;2022-11-09T09:48:36;12.50;87.90
74364;DHT22;62797;49.740;10.154;2022-11-09T09:51:14;12.50;87.80
74364;DHT22;62797;49.740;10.154;2022-11-09T09:53:48;12.60;87.90
74364;DHT22;62797;49.740;10.154;2022-11-09T09:56:24;12.70;88.20
74364;DHT22;62797;49.740;10.154;2022-11-09T09:58:57;12.70;87.90
74364;DHT22;62797;49.740;10.154;2022-11-09T10:01:32;12.80;87.60
74364;DHT22;62797;49.740;10.154;2022-11-09T10:03:59;12.80;87.70
74364;DHT22;62797;49.740;10.154;2022-11-09T10:18:16;12.80;87.30
74364;DHT22;62797;49.740;10.154;2022-11-09T10:21:02;12.80;87.50
74364;DHT22;62797;49.740;10.154;2022-11-09T10:26:48;12.70;87.30
74364;DHT22;62797;49.740;10.154;2022-11-09T10:29:22;12.80;88.00
74364;DHT22;62797;49.740;10.154;2022-11-09T10:31:54;12.90;88.00
74364;DHT22;62797;49.740;10.154;2022-11-09T10:34:31;13.00;88.10
74364;DHT22;62797;49.740;10.154;2022-11-09T10:37:18;13.00;87.70
74364;DHT22;62797;49.740;10.154;2022-11-09T10:42:28;13.10;88.20
74364;DHT22;62797;49.740;10.154;2022-11-09T10:44:53;13.20;88.50
74364;DHT22;62797;49.740;10.154;2022-11-09T10:47:19;13.20;88.80
74364;DHT22;62797;49.740;10.154;2022-11-09T10:52:34;13.40;88.60
74364;DHT22;62797;49.740;10.154;2022-11-09T10:58:00;13.70;88.60
74364;DHT22;62797;49.740;10.154;2022-11-09T11:00:27;13.60;86.30
74364;DHT22;62797;49.740;10.154;2022-11-09T11:02:53;13.60;87.10
74364;DHT22;62797;49.740;10.154;2022-11-09T11:05:20;13.60;86.40
74364;DHT22;62797;49.740;10.154;2022-11-09T11:07:46;13.50;85.70
74364;DHT22;62797;49.740;10.154;2022-11-09T11:10:19;13.50;86.10
74364;DHT22;62797;49.740;10.154;2022-11-09T11:12:56;13.50;84.10
74364;DHT22;62797;49.740;10.154;2022-11-09T11:15:30;13.40;83.50
74364;DHT22;62797;49.740;10.154;2022-11-09T11:18:01;13.40;82.70
74364;DHT22;62797;49.740;10.154;2022-11-09T11:20:33;13.30;83.70
74364;DHT22;62797;49.740;10.154;2022-11-09T11:28:45;13.30;84.60
74364;DHT22;62797;49.740;10.154;2022-11-09T11:31:19;13.40;86.30
74364;DHT22;62797;49.740;10.154;2022-11-09T11:33:46;13.50;85.30
74364;DHT22;62797;49.740;10.154;2022-11-09T11:36:38;13.50;85.60
74364;DHT22;62797;49.740;10.154;2022-11-09T11:42:44;13.60;84.40
74364;DHT22;62797;49.740;10.154;2022-11-09T11:50:42;13.90;85.30
74364;DHT22;62797;49.740;10.154;2022-11-09T11:56:28;14.10;86.00
74364;DHT22;62797;49.740;10.154;2022-11-09T12:09:54;14.10;84.30
74364;DHT22;62797;49.740;10.154;2022-11-09T12:15:23;14.10;84.20
74364;DHT22;62797;49.740;10.154;2022-11-09T12:18:14;14.00;78.50
74364;DHT22;62797;49.740;10.154;2022-11-09T12:21:09;14.00;80.40
74364;DHT22;62797;49.740;10.154;2022-11-09T12:23:53;14.00;82.10
74364;DHT22;62797;49.740;10.154;2022-11-09T12:26:24;14.00;81.30
74364;DHT22;62797;49.740;10.154;2022-11-09T12:32:15;14.00;80.40
74364;DHT22;62797;49.740;10.154;2022-11-09T12:34:50;14.00;80.00
74364;DHT22;62797;49.740;10.154;2022-11-09T12:37:33;14.10;82.40
74364;DHT22;62797;49.740;10.154;2022-11-09T12:40:42;14.20;81.60
74364;DHT22;62797;49.740;10.154;2022-11-09T12:43:25;14.20;80.90
74364;DHT22;62797;49.740;10.154;2022-11-09T12:45:52;14.20;79.60
74364;DHT22;62797;49.740;10.154;2022-11-09T12:48:24;14.20;80.30
74364;DHT22;62797;49.740;10.154;2022-11-09T12:50:51;14.20;78.70
74364;DHT22;62797;49.740;10.154;2022-11-09T12:53:18;14.20;79.60
74364;DHT22;62797;49.740;10.154;2022-11-09T12:55:50;14.20;80.40
74364;DHT22;62797;49.740;10.154;2022-11-09T12:58:26;14.30;81.70
74364;DHT22;62797;49.740;10.154;2022-11-09T13:00:55;14.30;79.70
74364;DHT22;62797;49.740;10.154;2022-11-09T13:03:23;14.20;77.60
74364;DHT22;62797;49.740;10.154;2022-11-09T13:06:20;14.20;78.80
74364;DHT22;62797;49.740;10.154;2022-11-09T13:09:17;14.30;76.50
74364;DHT22;62797;49.740;10.154;2022-11-09T13:11:50;14.30;76.30
74364;DHT22;62797;49.740;10.154;2022-11-09T13:16:52;14.20;74.30
74364;DHT22;62797;49.740;10.154;2022-11-09T13:24:56;14.10;75.40
74364;DHT22;62797;49.740;10.154;2022-11-09T13:27:44;14.10;77.40
74364;DHT22;62797;49.740;10.154;2022-11-09T13:33:20;14.20;72.80
74364;DHT22;62797;49.740;10.154;2022-11-09T13:38:22;14.10;75.50
74364;DHT22;62797;49.740;10.154;2022-11-09T13:40:55;14.10;75.40
74364;DHT22;62797;49.740;10.154;2022-11-09T13:43:25;14.10;74.50
74364;DHT22;62797;49.740;10.154;2022-11-09T13:45:55;14.10;75.10
74364;DHT22;62797;49.740;10.154;2022-11-09T13:48:22;14.10;73.20
74364;DHT22;62797;49.740;10.154;2022-11-09T13:50:53;14.00;73.30
74364;DHT22;62797;49.740;10.154;2022-11-09T13:53:30;14.00;75.20
74364;DHT22;62797;49.740;10.154;2022-11-09T13:55:56;13.90;75.80
74364;DHT22;62797;49.740;10.154;2022-11-09T13:58:36;13.90;77.60
74364;DHT22;62797;49.740;10.154;2022-11-09T14:01:03;13.90;75.60
74364;DHT22;62797;49.740;10.154;2022-11-09T14:03:30;13.90;73.40
74364;DHT22;62797;49.740;10.154;2022-11-09T14:06:00;13.80;75.90
74364;DHT22;62797;49.740;10.154;2022-11-09T14:08:29;13.90;74.10
74364;DHT22;62797;49.740;10.154;2022-11-09T14:11:08;13.80;75.00
74364;DHT22;62797;49.740;10.154;2022-11-09T14:16:46;13.80;75.50
74364;DHT22;62797;49.740;10.154;2022-11-09T14:21:51;13.80;77.70
74364;DHT22;62797;49.740;10.154;2022-11-09T14:24:30;13.80;78.10
74364;DHT22;62797;49.740;10.154;2022-11-09T14:29:35;13.70;78.80
74364;DHT22;62797;49.740;10.154;2022-11-09T14:32:22;13.70;78.20
74364;DHT22;62797;49.740;10.154;2022-11-09T14:34:48;13.70;78.00
74364;DHT22;62797;49.740;10.154;2022-11-09T14:37:14;13.70;78.80
74364;DHT22;62797;49.740;10.154;2022-11-09T14:39:41;13.70;79.60
74364;DHT22;62797;49.740;10.154;2022-11-09T14:42:17;13.70;78.70
74364;DHT22;62797;49.740;10.154;2022-11-09T14:44:44;13.70;79.20
74364;DHT22;62797;49.740;10.154;2022-11-09T14:47:13;13.70;79.30
74364;DHT22;62797;49.740;10.154;2022-11-09T14:49:39;13.60;77.80
74364;DHT22;62797;49.740;10.154;2022-11-09T14:52:05;13.60;78.90
74364;DHT22;62797;49.740;10.154;2022-11-09T14:54:34;13.60;78.10
74364;DHT22;62797;49.740;10.154;2022-11-09T14:57:00;13.60;77.80
74364;DHT22;62797;49.740;10.154;2022-11-09T14:59:31;13.60;77.60
74364;DHT22;62797;49.740;10.154;2022-11-09T15:02:06;13.70;78.70
74364;DHT22;62797;49.740;10.154;2022-11-09T15:04:58;13.60;79.20
74364;DHT22;62797;49.740;10.154;2022-11-09T15:07:31;13.60;78.00
74364;DHT22;62797;49.740;10.154;2022-11-09T15:10:03;13.50;78.40
74364;DHT22;62797;49.740;10.154;2022-11-09T15:12:30;13.50;79.70
74364;DHT22;62797;49.740;10.154;2022-11-09T15:15:03;13.50;79.00
74364;DHT22;62797;49.740;10.154;2022-11-09T15:17:31;13.50;79.50
74364;DHT22;62797;49.740;10.154;2022-11-09T15:28:03;13.30;80.40
74364;DHT22;62797;49.740;10.154;2022-11-09T15:31:07;13.30;80.60
74364;DHT22;62797;49.740;10.154;2022-11-09T15:36:01;13.40;80.60
74364;DHT22;62797;49.740;10.154;2022-11-09T15:38:36;13.40;79.80
74364;DHT22;62797;49.740;10.154;2022-11-09T15:41:11;13.40;80.30
74364;DHT22;62797;49.740;10.154;2022-11-09T15:43:37;13.40;79.70
74364;DHT22;62797;49.740;10.154;2022-11-09T15:46:03;13.30;80.10
74364;DHT22;62797;49.740;10.154;2022-11-09T15:48:29;13.30;80.10
74364;DHT22;62797;49.740;10.154;2022-11-09T15:50:55;13.30;80.20
74364;DHT22;62797;49.740;10.154;2022-11-09T15:53:20;13.30;80.20
74364;DHT22;62797;49.740;10.154;2022-11-09T15:55:47;13.40;80.20
74364;DHT22;62797;49.740;10.154;2022-11-09T15:58:15;13.40;80.30
74364;DHT22;62797;49.740;10.154;2022-11-09T16:00:41;13.40;79.80
74364;DHT22;62797;49.740;10.154;2022-11-09T16:03:07;13.30;78.60
74364;DHT22;62797;49.740;10.154;2022-11-09T16:05:33;13.30;79.20
74364;DHT22;62797;49.740;10.154;2022-11-09T16:07:59;13.30;79.10
74364;DHT22;62797;49.740;10.154;2022-11-09T16:10:24;13.30;79.80
74364;DHT22;62797;49.740;10.154;2022-11-09T16:12:55;13.30;79.30
74364;DHT22;62797;49.740;10.154;2022-11-09T16:15:21;13.40;80.10
74364;DHT22;62797;49.740;10.154;2022-11-09T16:17:47;13.40;78.60
74364;DHT22;62797;49.740;10.154;2022-11-09T16:20:16;13.30;79.90
74364;DHT22;62797;49.740;10.154;2022-11-09T16:22:42;13.30;79.80
74364;DHT22;62797;49.740;10.154;2022-11-09T16:25:07;13.30;80.00
74364;DHT22;62797;49.740;10.154;2022-11-09T16:27:34;13.40;80.10
74364;DHT22;62797;49.740;10.154;2022-11-09T16:29:59;13.30;80.10
74364;DHT22;62797;49.740;10.154;2022-11-09T16:32:25;13.30;80.40
74364;DHT22;62797;49.740;10.154;2022-11-09T16:34:51;13.20;80.50
74364;DHT22;62797;49.740;10.154;2022-11-09T16:37:17;13.30;80.90
74364;DHT22;62797;49.740;10.154;2022-11-09T16:39:43;13.20;80.80
74364;DHT22;62797;49.740;10.154;2022-11-09T16:42:11;13.20;81.10
74364;DHT22;62797;49.740;10.154;2022-11-09T16:44:39;13.20;80.90
74364;DHT22;62797;49.740;10.154;2022-11-09T16:47:08;13.10;81.30
74364;DHT22;62797;49.740;10.154;2022-11-09T16:49:35;13.10;81.70
74364;DHT22;62797;49.740;10.154;2022-11-09T16:52:00;13.10;81.50
74364;DHT22;62797;49.740;10.154;2022-11-09T16:54:26;13.10;81.40
74364;DHT22;62797;49.740;10.154;2022-11-09T16:56:51;13.10;81.00
74364;DHT22;62797;49.740;10.154;2022-11-09T16:59:19;13.20;81.60
74364;DHT22;62797;49.740;10.154;2022-11-09T17:01:52;13.20;81.60
74364;DHT22;62797;49.740;10.154;2022-11-09T17:04:19;13.10;81.70
74364;DHT22;62797;49.740;10.154;2022-11-09T17:06:44;13.10;81.70